Time;durP1;ratioP1;P1;durP2;ratioP2;P2;SDS_P1;SDS_P2;PMS_P1;PMS_P2;Temp;Humidity;BMP_temperature;BMP_pressure;BME280_temperature;BME280_humidity;BME280_pressure;Samples;Min_cycle;Max_cycle;Signal;HPM_P1;HPM_P2
2023/09/28 00:00:35;;;;;;;11.70;10.13;;;20.00;99.90;;;;;;6097109;23;20134;-68
2023/09/28 00:02:45;;;;;;;11.98;9.93;;;21.10;99.90;;;;;;6096678;23;20036;-68
2023/09/28 00:05:13;;;;;;;11.77;9.95;;;20.80;99.90;;;;;;6122229;23;20355;-68
2023/09/28 00:07:40;;;;;;;12.45;10.40;;;20.50;99.90;;;;;;6071845;23;20404;-68
2023/09/28 00:10:11;;;;;;;11.25;9.30;;;20.80;99.90;;;;;;6123409;23;20068;-68
2023/09/28 00:12:42;;;;;;;11.77;10.20;;;20.60;99.90;;;;;;6095866;23;20010;-69
2023/09/28 00:15:09;;;;;;;13.80;10.85;;;21.10;99.90;;;;;;6122224;23;20014;-68
2023/09/28 00:17:38;;;;;;;11.35;9.88;;;20.50;99.90;;;;;;6095520;23;20013;-68
2023/09/28 00:20:18;;;;;;;11.25;9.23;;;22.20;99.90;;;;;;6097305;23;20079;-67
2023/09/28 00:23:03;;;;;;;13.07;10.00;;;20.20;99.90;;;;;;6123451;23;20010;-69
2023/09/28 00:25:29;;;;;;;12.65;10.10;;;20.20;99.90;;;;;;6122323;23;20018;-68
2023/09/28 00:27:55;;;;;;;11.20;8.95;;;20.10;99.90;;;;;;6096032;23;20024;-68
2023/09/28 00:30:22;;;;;;;12.10;9.68;;;19.70;99.90;;;;;;6123012;23;20014;-68
2023/09/28 00:32:50;;;;;;;12.38;9.40;;;20.80;99.90;;;;;;6119926;23;20010;-68
2023/09/28 00:35:17;;;;;;;12.75;9.13;;;19.90;99.90;;;;;;6120917;23;20100;-68
2023/09/28 00:37:47;;;;;;;12.80;9.88;;;21.10;99.90;;;;;;6121272;23;20380;-68
2023/09/28 00:40:18;;;;;;;11.38;8.82;;;20.70;99.90;;;;;;6121087;23;20018;-68
2023/09/28 00:42:49;;;;;;;12.25;9.90;;;20.80;99.90;;;;;;6121536;23;20125;-68
2023/09/28 00:45:15;;;;;;;12.07;9.50;;;19.90;99.90;;;;;;6120634;23;20021;-68
2023/09/28 00:47:42;;;;;;;12.38;9.60;;;20.10;99.90;;;;;;6122564;23;20014;-68
2023/09/28 00:50:16;;;;;;;11.73;9.85;;;20.00;99.90;;;;;;6121211;23;20056;-68
2023/09/28 00:52:57;;;;;;;11.25;9.05;;;20.30;99.90;;;;;;6123202;23;20022;-68
2023/09/28 00:55:24;;;;;;;12.18;9.52;;;20.30;99.90;;;;;;6120951;23;20028;-69
2023/09/28 00:57:50;;;;;;;11.93;9.85;;;21.00;99.90;;;;;;6122013;23;20021;-68
2023/09/28 01:00:21;;;;;;;11.73;8.70;;;20.20;99.90;;;;;;6119015;23;20013;-68
2023/09/28 01:02:51;;;;;;;12.10;9.80;;;20.20;99.90;;;;;;6121178;23;20014;-67
2023/09/28 01:05:31;;;;;;;11.80;9.75;;;20.90;99.90;;;;;;6119835;23;20507;-68
2023/09/28 01:08:12;;;;;;;10.93;8.75;;;20.10;99.90;;;;;;6120081;23;20018;-68
2023/09/28 01:10:40;;;;;;;10.32;8.57;;;19.90;99.90;;;;;;6122399;23;20025;-68
2023/09/28 01:13:27;;;;;;;11.70;8.38;;;20.80;99.90;;;;;;6122100;23;20020;-68
2023/09/28 01:15:52;;;;;;;9.82;8.30;;;20.20;99.90;;;;;;6121433;23;20028;-67
2023/09/28 01:18:19;;;;;;;11.80;8.40;;;19.70;99.90;;;;;;6118212;23;20085;-67
2023/09/28 01:20:48;;;;;;;11.38;8.43;;;19.60;99.90;;;;;;6120714;23;20013;-66
2023/09/28 01:23:14;;;;;;;10.73;8.38;;;21.00;99.90;;;;;;6122506;23;20020;-67
2023/09/28 01:25:40;;;;;;;11.73;8.35;;;20.20;99.90;;;;;;6120842;23;20089;-67
2023/09/28 01:28:06;;;;;;;9.43;7.45;;;19.60;99.90;;;;;;6120068;23;20053;-68
2023/09/28 01:30:32;;;;;;;10.68;7.65;;;20.70;99.90;;;;;;6121946;23;20052;-67
2023/09/28 01:32:58;;;;;;;10.75;7.15;;;21.00;99.90;;;;;;6122641;23;20018;-67
2023/09/28 01:35:24;;;;;;;10.35;7.53;;;19.80;99.90;;;;;;6121808;23;20941;-67
2023/09/28 01:38:05;;;;;;;10.15;7.40;;;20.80;99.90;;;;;;6122229;23;20049;-68
2023/09/28 01:40:31;;;;;;;10.45;8.00;;;20.50;99.90;;;;;;6121097;23;20142;-68
2023/09/28 01:43:00;;;;;;;9.63;7.35;;;20.00;99.90;;;;;;6122377;23;20473;-67
2023/09/28 01:45:25;;;;;;;10.63;7.65;;;20.60;99.90;;;;;;6122508;23;20014;-67
2023/09/28 01:47:51;;;;;;;10.02;8.00;;;20.20;99.90;;;;;;6122285;23;20021;-67
2023/09/28 01:50:17;;;;;;;10.10;7.68;;;20.30;99.90;;;;;;6121521;23;20098;-67
2023/09/28 01:52:42;;;;;;;12.27;7.38;;;20.70;99.90;;;;;;6121610;23;20013;-69
2023/09/28 01:55:09;;;;;;;10.57;7.82;;;20.10;99.90;;;;;;6120437;23;20018;-67
2023/09/28 01:57:34;;;;;;;11.10;7.85;;;20.10;99.90;;;;;;6114996;23;20194;-68
2023/09/28 02:00:00;;;;;;;9.80;7.32;;;20.60;99.90;;;;;;6118769;23;20036;-67
2023/09/28 02:02:29;;;;;;;11.30;8.05;;;19.90;99.90;;;;;;6118476;23;20069;-67
2023/09/28 02:04:54;;;;;;;14.63;7.82;;;20.00;99.90;;;;;;6117304;23;20051;-67
2023/09/28 02:07:20;;;;;;;10.85;7.80;;;19.60;99.90;;;;;;6119803;23;20356;-68
2023/09/28 02:09:46;;;;;;;11.00;7.97;;;20.40;99.90;;;;;;6119335;23;20025;-67
2023/09/28 02:12:12;;;;;;;10.32;7.35;;;19.70;99.90;;;;;;6121788;23;20014;-67
2023/09/28 02:14:38;;;;;;;10.07;7.57;;;20.80;99.90;;;;;;6120558;23;20029;-67
2023/09/28 02:17:04;;;;;;;9.45;6.47;;;19.80;99.90;;;;;;6122583;23;20046;-67
2023/09/28 02:19:29;;;;;;;10.18;6.75;;;19.90;99.90;;;;;;6122090;23;20017;-67
2023/09/28 02:21:55;;;;;;;11.40;6.78;;;19.70;99.90;;;;;;6120989;23;20010;-68
2023/09/28 02:24:21;;;;;;;10.35;7.10;;;19.60;99.90;;;;;;6120799;23;20006;-67
2023/09/28 02:26:47;;;;;;;9.73;6.53;;;19.80;99.90;;;;;;6120266;23;20014;-68
2023/09/28 02:29:13;;;;;;;11.57;6.53;;;20.70;99.90;;;;;;6121270;23;20025;-67
2023/09/28 02:31:42;;;;;;;9.35;6.47;;;19.80;99.90;;;;;;6121344;23;20359;-67
2023/09/28 02:34:08;;;;;;;10.35;5.57;;;19.70;99.90;;;;;;6122030;23;20010;-68
2023/09/28 02:36:35;;;;;;;10.20;5.57;;;19.80;99.90;;;;;;6122802;23;20014;-67
2023/09/28 02:39:12;;;;;;;10.10;5.43;;;19.80;99.90;;;;;;6121006;23;20085;-67
2023/09/28 02:41:38;;;;;;;8.32;5.72;;;19.80;99.90;;;;;;6122065;23;20084;-67
2023/09/28 02:44:04;;;;;;;8.60;5.45;;;20.00;99.90;;;;;;6097670;23;20045;-67
2023/09/28 02:46:29;;;;;;;8.23;6.07;;;19.50;99.90;;;;;;6097996;23;20022;-67
2023/09/28 02:48:55;;;;;;;10.23;5.40;;;20.00;1.00;;;;;;6123215;23;20014;-67
2023/09/28 02:51:22;;;;;;;11.10;6.22;;;19.50;1.00;;;;;;6124367;23;20025;-68
2023/09/28 02:53:48;;;;;;;7.82;4.50;;;19.80;1.00;;;;;;6124320;23;20013;-67
2023/09/28 02:56:14;;;;;;;8.88;5.70;;;19.80;1.00;;;;;;6124087;23;20352;-68
2023/09/28 02:58:40;;;;;;;9.05;5.28;;;20.00;1.00;;;;;;6097760;23;20017;-68
2023/09/28 03:01:06;;;;;;;9.20;5.82;;;19.50;1.00;;;;;;6098498;23;20045;-68
2023/09/28 03:03:31;;;;;;;10.23;5.88;;;19.70;1.00;;;;;;6124623;23;20444;-68
2023/09/28 03:06:00;;;;;;;11.13;5.40;;;19.50;1.00;;;;;;6074920;23;20017;-68
2023/09/28 03:08:27;;;;;;;8.80;5.10;;;20.40;1.00;;;;;;6097130;23;20014;-68
2023/09/28 03:10:53;;;;;;;8.15;5.20;;;20.50;1.00;;;;;;6096668;23;20026;-68
2023/09/28 03:13:19;;;;;;;8.77;5.25;;;19.80;1.00;;;;;;6123637;23;20061;-68
2023/09/28 03:15:45;;;;;;;9.27;5.80;;;20.50;1.00;;;;;;6123271;23;20352;-68
2023/09/28 03:18:12;;;;;;;8.57;5.47;;;19.60;1.00;;;;;;6123179;23;20028;-68
2023/09/28 03:20:38;;;;;;;8.95;4.78;;;19.40;1.00;;;;;;6096724;23;20018;-68
2023/09/28 03:23:06;;;;;;;8.95;5.60;;;20.70;1.00;;;;;;6122078;23;20020;-68
2023/09/28 03:25:32;;;;;;;9.30;5.53;;;19.70;1.00;;;;;;6123737;23;20018;-68
2023/09/28 03:27:58;;;;;;;10.45;6.43;;;19.80;1.00;;;;;;6097353;23;20010;-69
2023/09/28 03:30:25;;;;;;;8.85;6.10;;;19.60;1.00;;;;;;6124061;23;20014;-68
2023/09/28 03:32:52;;;;;;;9.35;5.57;;;19.50;1.00;;;;;;6124042;23;20106;-68
2023/09/28 03:35:19;;;;;;;10.38;5.53;;;19.90;1.00;;;;;;6123489;23;20459;-68
2023/09/28 03:37:48;;;;;;;7.60;5.35;;;19.80;1.00;;;;;;6123426;23;20025;-68
2023/09/28 03:40:15;;;;;;;9.50;5.60;;;19.70;1.00;;;;;;6097812;23;20125;-68
2023/09/28 03:42:48;;;;;;;10.27;5.75;;;20.30;1.00;;;;;;6098099;23;20092;-68
2023/09/28 03:45:16;;;;;;;9.45;5.38;;;19.70;1.00;;;;;;6097810;23;20010;-68
2023/09/28 03:47:43;;;;;;;9.23;5.25;;;19.50;1.00;;;;;;6096591;23;20018;-68
2023/09/28 03:50:11;;;;;;;8.27;5.15;;;19.40;1.00;;;;;;6123671;23;20018;-68
2023/09/28 03:52:38;;;;;;;9.50;5.38;;;20.40;1.00;;;;;;6123599;23;20014;-68
2023/09/28 03:55:11;;;;;;;9.05;5.07;;;19.80;1.00;;;;;;6097091;23;20018;-68
2023/09/28 03:57:37;;;;;;;9.02;5.13;;;19.60;1.00;;;;;;6096416;23;20014;-68
2023/09/28 04:00:06;;;;;;;8.50;5.13;;;19.60;1.00;;;;;;6096961;23;20042;-68
2023/09/28 04:02:32;;;;;;;8.60;5.22;;;19.60;1.00;;;;;;6122362;23;20020;-68
2023/09/28 04:04:58;;;;;;;8.52;5.47;;;19.60;1.00;;;;;;6096076;23;20048;-68
2023/09/28 04:07:24;;;;;;;8.50;5.50;;;19.50;1.00;;;;;;6122173;23;20014;-68
2023/09/28 04:09:50;;;;;;;10.63;5.65;;;19.80;1.40;;;;;;6095604;23;20500;-68
2023/09/28 04:12:16;;;;;;;9.15;5.22;;;19.70;7.90;;;;;;6095282;23;20520;-68
2023/09/28 04:14:42;;;;;;;11.50;5.38;;;19.50;12.20;;;;;;6122168;23;20021;-68
2023/09/28 04:17:08;;;;;;;12.18;5.90;;;19.70;15.70;;;;;;6122812;23;20101;-68
2023/09/28 04:19:34;;;;;;;9.95;5.95;;;19.50;21.50;;;;;;6122370;23;20089;-68
2023/09/28 04:22:00;;;;;;;9.75;5.30;;;19.60;26.00;;;;;;6096131;23;20081;-68
2023/09/28 04:24:26;;;;;;;13.15;5.50;;;19.40;31.80;;;;;;6122476;23;20052;-68
2023/09/28 04:26:51;;;;;;;9.75;5.15;;;19.50;36.20;;;;;;6120140;23;20009;-68
2023/09/28 04:29:17;;;;;;;10.70;5.18;;;19.70;42.40;;;;;;6096253;23;20017;-68
2023/09/28 04:31:46;;;;;;;10.75;5.88;;;19.60;46.60;;;;;;6122339;23;20016;-68
2023/09/28 04:34:13;;;;;;;10.93;5.63;;;19.70;52.30;;;;;;6096367;23;20014;-68
2023/09/28 04:36:38;;;;;;;13.43;6.40;;;20.40;51.60;;;;;;6121968;23;20013;-68
2023/09/28 04:39:05;;;;;;;15.20;6.20;;;19.50;58.00;;;;;;6121977;23;20080;-68
2023/09/28 04:41:31;;;;;;;12.63;5.85;;;19.50;57.40;;;;;;6096105;23;20018;-68
2023/09/28 04:43:58;;;;;;;16.45;6.15;;;19.70;58.60;;;;;;6122436;23;20033;-68
2023/09/28 04:46:24;;;;;;;17.45;6.22;;;19.80;54.20;;;;;;6121977;23;20014;-68
2023/09/28 04:48:49;;;;;;;15.48;5.90;;;19.40;46.30;;;;;;6122196;23;20017;-69
2023/09/28 04:51:15;;;;;;;19.02;6.90;;;19.40;38.50;;;;;;6121812;23;20049;-68
2023/09/28 04:53:41;;;;;;;16.02;5.53;;;19.30;29.90;;;;;;6095162;23;20056;-69
2023/09/28 04:56:12;;;;;;;17.55;5.93;;;20.20;22.10;;;;;;6119638;23;20013;-69
2023/09/28 04:58:38;;;;;;;17.15;5.82;;;19.50;9.50;;;;;;6093707;23;20151;-68
2023/09/28 05:01:06;;;;;;;18.25;5.50;;;19.80;1.00;;;;;;6094913;23;20010;-68
2023/09/28 05:03:32;;;;;;;15.05;4.40;;;19.50;1.00;;;;;;6122291;23;20505;-68
2023/09/28 05:05:58;;;;;;;14.93;5.07;;;19.50;1.00;;;;;;6121877;23;20029;-68
2023/09/28 05:08:24;;;;;;;14.65;4.35;;;19.60;1.00;;;;;;6095149;23;20461;-68
2023/09/28 05:10:50;;;;;;;12.98;4.35;;;19.50;1.00;;;;;;6120565;23;20014;-69
2023/09/28 05:13:16;;;;;;;17.00;4.70;;;19.60;1.00;;;;;;6122064;23;20045;-69
2023/09/28 05:15:42;;;;;;;14.57;4.03;;;19.50;1.00;;;;;;6122042;23;20018;-68
2023/09/28 05:18:07;;;;;;;19.42;4.53;;;19.50;1.00;;;;;;6095415;23;20020;-68
2023/09/28 05:20:33;;;;;;;18.38;5.45;;;19.50;99.90;;;;;;6094746;23;20456;-68
2023/09/28 05:22:59;;;;;;;18.83;4.18;;;19.40;99.90;;;;;;6095008;23;20065;-68
2023/09/28 05:25:25;;;;;;;17.85;4.60;;;19.50;99.90;;;;;;6094986;23;20018;-68
2023/09/28 05:27:51;;;;;;;16.67;4.05;;;19.30;99.90;;;;;;6093047;23;20077;-68
2023/09/28 05:30:17;;;;;;;17.30;4.63;;;19.20;99.90;;;;;;6092757;23;20469;-68
2023/09/28 05:32:43;;;;;;;20.90;4.32;;;19.40;99.90;;;;;;6113931;23;20022;-68
2023/09/28 05:35:10;;;;;;;17.25;4.40;;;19.20;99.90;;;;;;6114524;23;20022;-68
2023/09/28 05:37:36;;;;;;;18.45;4.75;;;19.20;99.90;;;;;;6092965;23;20651;-68
2023/09/28 05:40:04;;;;;;;15.73;4.25;;;19.20;99.90;;;;;;6093592;23;20056;-68
2023/09/28 05:42:33;;;;;;;16.85;4.78;;;19.30;99.90;;;;;;6122436;23;20105;-69
2023/09/28 05:45:00;;;;;;;18.83;4.93;;;19.00;99.90;;;;;;6120531;23;20444;-68
2023/09/28 05:47:26;;;;;;;19.27;4.07;;;19.40;99.90;;;;;;6120609;23;20018;-69
2023/09/28 05:49:52;;;;;;;22.65;4.70;;;19.20;99.90;;;;;;6118459;23;20029;-69
2023/09/28 05:52:19;;;;;;;16.85;4.28;;;18.90;99.90;;;;;;6113123;23;20041;-68
2023/09/28 05:54:45;;;;;;;17.63;4.50;;;19.20;99.90;;;;;;6115337;23;20017;-68
2023/09/28 05:57:12;;;;;;;16.80;3.95;;;19.10;99.90;;;;;;6116850;23;20010;-68
2023/09/28 05:59:38;;;;;;;17.10;4.60;;;19.10;99.90;;;;;;6116860;23;20012;-68
2023/09/28 06:02:04;;;;;;;16.33;3.60;;;19.50;99.90;;;;;;6114160;23;20093;-68
2023/09/28 06:04:30;;;;;;;16.38;4.53;;;19.40;99.90;;;;;;6117354;23;20068;-68
2023/09/28 06:06:56;;;;;;;15.10;4.07;;;19.10;99.90;;;;;;6116038;23;20745;-68
2023/09/28 06:09:22;;;;;;;18.02;4.82;;;19.10;99.90;;;;;;6114985;23;20014;-69
2023/09/28 06:11:48;;;;;;;16.85;4.22;;;19.20;99.90;;;;;;6116448;23;20474;-69
2023/09/28 06:14:17;;;;;;;21.98;5.00;;;19.50;99.90;;;;;;6114543;23;20082;-68
2023/09/28 06:16:43;;;;;;;15.02;4.22;;;18.80;99.90;;;;;;6115616;23;20017;-69
2023/09/28 06:19:09;;;;;;;18.52;5.07;;;19.00;99.90;;;;;;6115074;23;20463;-69
2023/09/28 06:21:35;;;;;;;22.00;5.00;;;19.00;99.90;;;;;;6115466;23;20049;-69
2023/09/28 06:24:02;;;;;;;23.45;5.93;;;18.80;99.90;;;;;;6115116;23;20117;-69
2023/09/28 06:26:27;;;;;;;21.33;5.38;;;19.00;99.90;;;;;;6118455;23;20214;-69
2023/09/28 06:28:54;;;;;;;18.10;5.32;;;19.10;99.90;;;;;;6118827;23;20013;-68
2023/09/28 06:31:19;;;;;;;16.95;4.13;;;19.00;99.90;;;;;;6118864;23;20064;-68
2023/09/28 06:33:48;;;;;;;16.80;4.95;;;19.30;99.90;;;;;;6117514;23;20018;-68
2023/09/28 06:36:18;;;;;;;22.10;5.28;;;19.20;99.90;;;;;;6093285;23;20018;-68
2023/09/28 06:38:44;;;;;;;20.80;5.15;;;19.10;99.90;;;;;;6090577;23;20495;-68
2023/09/28 06:41:09;;;;;;;16.02;4.45;;;19.00;99.90;;;;;;6091793;23;20085;-68
2023/09/28 06:43:35;;;;;;;20.92;5.68;;;19.00;99.90;;;;;;6068404;23;20010;-68
2023/09/28 06:46:01;;;;;;;25.45;5.97;;;18.60;99.90;;;;;;6117385;23;20459;-68
2023/09/28 06:48:28;;;;;;;19.65;4.57;;;19.00;99.90;;;;;;6092753;23;20445;-68
2023/09/28 06:50:58;;;;;;;21.05;5.45;;;19.10;99.90;;;;;;6066301;23;20021;-68
2023/09/28 06:53:24;;;;;;;20.02;4.57;;;18.90;99.90;;;;;;6119258;23;20018;-68
2023/09/28 06:55:52;;;;;;;18.58;4.93;;;19.30;99.90;;;;;;6119108;23;20021;-68
2023/09/28 06:58:18;;;;;;;20.23;5.75;;;19.10;99.90;;;;;;6118368;23;20092;-68
2023/09/28 07:00:44;;;;;;;21.88;6.00;;;19.30;99.90;;;;;;6118682;23;20009;-68
2023/09/28 07:03:16;;;;;;;15.05;4.25;;;18.80;99.90;;;;;;6118906;23;20569;-68
2023/09/28 07:05:42;;;;;;;21.45;5.07;;;19.20;99.90;;;;;;6119459;23;20014;-68
2023/09/28 07:08:08;;;;;;;19.45;4.65;;;19.20;99.90;;;;;;6092261;23;20018;-68
2023/09/28 07:10:35;;;;;;;16.63;5.53;;;19.80;99.90;;;;;;6119447;23;20010;-69
2023/09/28 07:13:03;;;;;;;18.73;4.93;;;19.20;99.90;;;;;;6093099;23;20013;-68
2023/09/28 07:15:29;;;;;;;20.08;5.60;;;19.00;99.90;;;;;;6119872;23;20066;-68
2023/09/28 07:17:55;;;;;;;17.13;4.82;;;19.20;99.90;;;;;;6092140;23;20089;-68
2023/09/28 07:20:22;;;;;;;23.92;5.63;;;18.90;99.90;;;;;;6092906;23;20416;-68
2023/09/28 07:22:50;;;;;;;17.60;6.78;;;19.10;99.90;;;;;;6119317;23;20098;-69
2023/09/28 07:25:16;;;;;;;19.88;5.00;;;19.20;99.90;;;;;;6119012;23;20013;-68
2023/09/28 07:27:43;;;;;;;24.67;6.05;;;19.20;99.90;;;;;;6092226;23;20049;-69
2023/09/28 07:30:11;;;;;;;20.85;5.32;;;19.20;99.90;;;;;;6092550;23;20025;-69
2023/09/28 07:32:37;;;;;;;22.35;5.00;;;19.20;99.90;;;;;;6119457;23;20089;-68
2023/09/28 07:35:04;;;;;;;14.50;4.30;;;19.00;99.90;;;;;;6091755;23;20467;-68
2023/09/28 07:37:30;;;;;;;18.83;5.00;;;19.00;99.90;;;;;;6119183;23;20456;-69
2023/09/28 07:39:55;;;;;;;22.08;4.70;;;19.10;99.90;;;;;;6093107;23;20017;-69
2023/09/28 07:42:22;;;;;;;21.23;5.03;;;19.00;99.90;;;;;;6092468;23;20013;-69
2023/09/28 07:44:48;;;;;;;21.60;4.93;;;19.00;99.90;;;;;;6093173;23;20018;-69
2023/09/28 07:47:13;;;;;;;16.20;4.28;;;19.50;99.90;;;;;;6118979;23;20017;-67
2023/09/28 07:49:40;;;;;;;15.70;4.75;;;19.10;99.90;;;;;;6092145;23;20404;-67
2023/09/28 07:52:08;;;;;;;19.58;4.78;;;19.30;99.90;;;;;;6119363;23;20014;-68
2023/09/28 07:54:38;;;;;;;18.70;4.90;;;19.30;99.90;;;;;;6119516;23;20014;-68
2023/09/28 07:57:04;;;;;;;22.38;5.53;;;19.30;99.90;;;;;;6119643;23;20010;-68
2023/09/28 07:59:32;;;;;;;16.17;4.40;;;19.70;99.90;;;;;;6119586;23;20340;-68
2023/09/28 08:01:58;;;;;;;21.48;4.60;;;19.20;99.90;;;;;;6093701;23;20017;-68
2023/09/28 08:04:23;;;;;;;19.33;5.03;;;18.70;99.90;;;;;;6093109;23;20056;-68
2023/09/28 08:06:49;;;;;;;17.77;5.13;;;19.90;99.90;;;;;;6092727;23;20093;-68
2023/09/28 08:09:15;;;;;;;17.13;5.03;;;19.00;99.90;;;;;;6092267;23;20600;-67
2023/09/28 08:11:43;;;;;;;13.95;4.18;;;19.90;99.90;;;;;;6092679;23;20356;-68
2023/09/28 08:14:09;;;;;;;15.27;4.07;;;19.20;99.90;;;;;;6092455;23;20006;-68
2023/09/28 08:16:36;;;;;;;17.13;3.75;;;19.50;99.90;;;;;;6119011;23;20080;-67
2023/09/28 08:19:02;;;;;;;16.27;4.03;;;19.40;99.90;;;;;;6092000;23;20041;-68
2023/09/28 08:21:28;;;;;;;18.98;4.82;;;19.20;99.90;;;;;;6092807;23;20089;-68
2023/09/28 08:23:55;;;;;;;16.92;4.38;;;19.10;99.90;;;;;;6118443;23;20018;-67
2023/09/28 08:26:21;;;;;;;18.02;4.28;;;19.20;99.90;;;;;;6118487;23;20033;-68
2023/09/28 08:28:46;;;;;;;15.68;4.07;;;18.90;99.90;;;;;;6117823;23;20014;-68
2023/09/28 08:31:12;;;;;;;20.23;4.78;;;19.40;99.90;;;;;;6095263;23;20045;-68
2023/09/28 08:33:38;;;;;;;16.75;4.30;;;19.10;99.90;;;;;;6092763;23;20093;-67
2023/09/28 08:36:08;;;;;;;13.15;4.20;;;19.00;99.90;;;;;;6092912;23;20455;-67
2023/09/28 08:38:33;;;;;;;15.32;4.47;;;19.70;99.90;;;;;;6116680;23;20045;-68
2023/09/28 08:41:01;;;;;;;15.45;4.88;;;19.40;99.90;;;;;;6119057;23;20014;-67
2023/09/28 08:43:30;;;;;;;15.35;3.85;;;19.60;99.90;;;;;;6117494;23;20093;-68
2023/09/28 08:46:00;;;;;;;15.50;4.50;;;18.90;99.90;;;;;;6119022;23;20459;-68
2023/09/28 08:48:28;;;;;;;17.33;5.00;;;19.40;99.90;;;;;;6116840;23;20033;-67
2023/09/28 08:51:09;;;;;;;18.35;3.78;;;19.40;99.90;;;;;;6117207;23;20018;-67
2023/09/28 08:53:37;;;;;;;14.60;4.38;;;19.40;99.90;;;;;;6094793;23;20032;-68
2023/09/28 08:56:04;;;;;;;19.65;4.80;;;19.30;99.90;;;;;;6116704;23;20093;-67
2023/09/28 08:58:34;;;;;;;22.95;4.30;;;19.90;99.90;;;;;;6118815;23;20009;-67
2023/09/28 09:01:01;;;;;;;16.25;5.20;;;19.20;99.90;;;;;;6118782;23;20467;-67
2023/09/28 09:03:28;;;;;;;16.10;4.55;;;20.00;99.90;;;;;;6118849;23;20022;-67
2023/09/28 09:05:56;;;;;;;20.98;4.70;;;18.60;99.90;;;;;;6116785;23;20120;-67
2023/09/28 09:08:22;;;;;;;15.13;3.95;;;19.50;99.90;;;;;;6117579;23;20021;-67
2023/09/28 09:10:51;;;;;;;20.10;4.55;;;19.10;99.90;;;;;;6118601;23;20596;-68
2023/09/28 09:13:20;;;;;;;18.67;4.60;;;19.20;99.90;;;;;;6117983;23;20014;-67
2023/09/28 09:15:46;;;;;;;18.77;4.75;;;18.70;99.90;;;;;;6118559;23;20018;-67
2023/09/28 09:18:19;;;;;;;18.17;4.38;;;19.10;99.90;;;;;;6115570;23;20016;-67
2023/09/28 09:20:48;;;;;;;15.43;4.55;;;18.60;99.90;;;;;;6118606;23;20017;-67
2023/09/28 09:23:15;;;;;;;14.88;4.35;;;19.50;99.90;;;;;;6115997;23;20010;-67
2023/09/28 09:25:47;;;;;;;16.80;5.07;;;19.50;99.90;;;;;;6117018;23;20027;-67
2023/09/28 09:28:26;;;;;;;13.55;4.20;;;19.30;99.90;;;;;;6115785;23;20018;-67
2023/09/28 09:30:52;;;;;;;17.17;4.95;;;18.60;99.90;;;;;;6118551;23;20018;-68
2023/09/28 09:33:18;;;;;;;15.18;5.10;;;19.10;99.90;;;;;;6091357;23;20068;-68
2023/09/28 09:35:44;;;;;;;18.75;5.13;;;18.60;99.90;;;;;;6117349;23;20141;-67
2023/09/28 09:38:09;;;;;;;13.30;3.80;;;19.50;99.90;;;;;;6117480;23;20014;-67
2023/09/28 09:40:35;;;;;;;15.15;4.97;;;19.60;99.90;;;;;;6092687;23;20016;-67
2023/09/28 09:43:08;;;;;;;13.85;3.67;;;19.30;99.90;;;;;;6092034;23;20014;-68
2023/09/28 09:45:40;;;;;;;18.60;4.38;;;19.10;99.90;;;;;;6118039;23;20020;-68
2023/09/28 09:48:06;;;;;;;15.35;3.53;;;19.30;99.90;;;;;;6091986;23;20065;-68
2023/09/28 09:50:35;;;;;;;12.95;3.67;;;19.30;99.90;;;;;;6119782;23;20456;-68
2023/09/28 09:53:04;;;;;;;14.82;5.00;;;19.40;99.90;;;;;;6120251;23;20778;-68
2023/09/28 09:55:37;;;;;;;20.98;4.63;;;19.00;99.90;;;;;;6094491;23;20076;-67
2023/09/28 09:58:05;;;;;;;14.85;3.65;;;19.10;99.90;;;;;;6120437;23;20018;-68
2023/09/28 10:00:33;;;;;;;18.30;5.13;;;19.40;99.90;;;;;;6120826;23;20065;-67
2023/09/28 10:03:03;;;;;;;14.02;3.97;;;18.70;99.90;;;;;;6121180;23;20014;-68
2023/09/28 10:05:32;;;;;;;19.08;3.58;;;19.00;99.90;;;;;;6096821;23;20486;-69
2023/09/28 10:07:59;;;;;;;15.73;3.70;;;19.50;99.90;;;;;;6094384;23;20089;-68
2023/09/28 10:10:28;;;;;;;15.85;4.13;;;19.10;99.90;;;;;;6120600;23;20084;-68
2023/09/28 10:12:55;;;;;;;20.95;4.53;;;19.10;99.90;;;;;;6120437;23;20092;-68
2023/09/28 10:15:21;;;;;;;22.48;4.65;;;19.90;99.90;;;;;;6119864;23;20026;-68
2023/09/28 10:17:48;;;;;;;16.75;4.07;;;20.00;99.90;;;;;;6120027;23;20053;-68
2023/09/28 10:20:15;;;;;;;17.08;3.45;;;19.30;99.90;;;;;;6093759;23;20109;-68
2023/09/28 10:22:43;;;;;;;13.45;3.33;;;19.30;99.90;;;;;;6119825;23;20324;-68
2023/09/28 10:25:12;;;;;;;16.23;4.80;;;19.10;99.90;;;;;;6070318;23;20040;-68
2023/09/28 10:27:39;;;;;;;17.95;3.75;;;19.40;99.90;;;;;;6119955;23;20466;-68
2023/09/28 10:30:24;;;;;;;13.13;3.45;;;19.00;99.90;;;;;;6120349;23;20014;-68
2023/09/28 10:32:57;;;;;;;16.35;4.10;;;19.00;99.90;;;;;;6116694;23;20031;-68
2023/09/28 10:35:28;;;;;;;15.98;3.97;;;19.20;99.90;;;;;;6117842;23;20385;-68
2023/09/28 10:38:15;;;;;;;15.80;3.72;;;19.90;99.90;;;;;;6119154;23;20014;-68
2023/09/28 10:40:42;;;;;;;16.83;4.15;;;19.20;99.90;;;;;;6117973;23;20018;-69
2023/09/28 10:43:13;;;;;;;12.20;3.28;;;19.30;99.90;;;;;;6093345;23;20396;-68
2023/09/28 10:45:39;;;;;;;15.82;3.88;;;19.40;99.90;;;;;;6094073;23;20049;-69
2023/09/28 10:48:06;;;;;;;14.50;3.33;;;19.20;99.90;;;;;;6119203;23;20022;-68
2023/09/28 10:50:37;;;;;;;16.42;4.25;;;19.40;99.90;;;;;;6120066;23;20085;-69
2023/09/28 10:53:03;;;;;;;14.27;4.47;;;19.70;99.90;;;;;;6120003;23;20014;-68
2023/09/28 10:55:29;;;;;;;16.50;3.85;;;19.20;99.90;;;;;;6119947;23;20024;-69
2023/09/28 10:57:54;;;;;;;16.73;4.07;;;19.10;99.90;;;;;;6119402;23;20035;-68
2023/09/28 11:00:23;;;;;;;17.38;4.00;;;19.10;99.90;;;;;;6119101;23;20022;-68
2023/09/28 11:02:48;;;;;;;14.98;3.63;;;19.30;99.90;;;;;;6117892;23;20097;-69
2023/09/28 11:05:16;;;;;;;14.32;3.70;;;19.00;99.90;;;;;;6118390;23;20404;-68
2023/09/28 11:07:42;;;;;;;12.55;3.30;;;19.30;99.90;;;;;;6119546;23;20025;-68
2023/09/28 11:10:11;;;;;;;15.82;3.20;;;19.30;99.90;;;;;;6120194;23;20010;-69
2023/09/28 11:12:37;;;;;;;12.68;3.10;;;18.70;99.90;;;;;;6119972;23;20500;-69
2023/09/28 11:15:03;;;;;;;17.92;3.88;;;19.30;99.90;;;;;;6119338;23;20014;-69
2023/09/28 11:17:29;;;;;;;16.20;3.58;;;19.20;99.90;;;;;;6118949;23;20014;-69
2023/09/28 11:19:56;;;;;;;14.65;3.38;;;19.10;99.90;;;;;;6119700;23;20036;-69
2023/09/28 11:22:24;;;;;;;13.43;3.95;;;20.40;99.90;;;;;;6117151;23;20065;-69
2023/09/28 11:24:50;;;;;;;12.48;3.33;;;19.00;99.90;;;;;;6119553;23;20024;-69
2023/09/28 11:27:16;;;;;;;13.80;3.50;;;19.50;99.90;;;;;;6115561;23;20018;-69
2023/09/28 11:29:43;;;;;;;13.65;3.05;;;19.40;99.90;;;;;;6118062;23;20068;-69
2023/09/28 11:32:09;;;;;;;13.90;3.15;;;19.60;99.90;;;;;;6118756;23;20018;-69
2023/09/28 11:34:38;;;;;;;10.45;2.58;;;19.20;99.90;;;;;;6119419;23;20022;-69
2023/09/28 11:37:09;;;;;;;16.15;3.58;;;19.30;99.90;;;;;;6093454;23;20138;-69
2023/09/28 11:39:37;;;;;;;14.43;3.30;;;19.20;99.90;;;;;;6119451;23;20014;-69
2023/09/28 11:42:04;;;;;;;18.63;4.20;;;19.40;99.90;;;;;;6118616;23;20086;-69
2023/09/28 11:44:29;;;;;;;16.63;4.07;;;19.30;99.90;;;;;;6119222;23;20021;-69
2023/09/28 11:46:56;;;;;;;17.10;4.20;;;18.90;99.90;;;;;;6117002;23;20018;-69
2023/09/28 11:49:22;;;;;;;17.60;4.40;;;19.40;99.90;;;;;;6067975;23;20014;-70
2023/09/28 11:51:48;;;;;;;16.58;3.70;;;19.40;99.90;;;;;;6119522;23;20076;-69
2023/09/28 11:54:16;;;;;;;15.38;3.60;;;19.30;99.90;;;;;;6119309;23;20045;-69
2023/09/28 11:56:43;;;;;;;10.93;3.65;;;19.50;99.90;;;;;;6118894;23;20017;-69
2023/09/28 11:59:14;;;;;;;14.43;3.50;;;19.80;99.90;;;;;;6068731;23;20488;-69
2023/09/28 12:01:39;;;;;;;15.77;3.67;;;19.30;99.90;;;;;;6093536;23;20018;-69
2023/09/28 12:04:06;;;;;;;14.95;4.85;;;19.20;99.90;;;;;;6120562;23;20459;-69
2023/09/28 12:06:32;;;;;;;14.13;3.83;;;19.40;99.90;;;;;;6069223;23;20515;-69
2023/09/28 12:08:58;;;;;;;16.20;3.90;;;19.30;99.90;;;;;;6092459;23;20021;-69
2023/09/28 12:11:24;;;;;;;13.07;3.58;;;19.50;99.90;;;;;;6116953;23;20022;-70
2023/09/28 12:13:49;;;;;;;10.82;4.15;;;19.50;99.90;;;;;;6119256;23;20355;-70
2023/09/28 12:16:15;;;;;;;14.73;4.15;;;18.90;99.90;;;;;;6118819;23;20018;-70
2023/09/28 12:18:41;;;;;;;14.77;3.58;;;19.30;99.90;;;;;;6091489;23;20018;-69
2023/09/28 12:21:07;;;;;;;18.05;4.13;;;19.70;99.90;;;;;;6118808;23;20006;-69
2023/09/28 12:23:32;;;;;;;14.35;4.22;;;19.10;99.90;;;;;;6093048;23;20045;-69
2023/09/28 12:26:01;;;;;;;14.52;4.18;;;19.30;99.90;;;;;;6069172;23;20021;-70
2023/09/28 12:28:27;;;;;;;17.10;4.35;;;19.30;99.90;;;;;;6118588;23;20024;-70
2023/09/28 12:30:53;;;;;;;13.95;3.60;;;19.10;99.90;;;;;;6118746;23;20025;-68
2023/09/28 12:33:19;;;;;;;11.35;3.22;;;19.40;99.90;;;;;;6092662;23;20048;-68
2023/09/28 12:35:45;;;;;;;12.10;3.72;;;19.30;99.90;;;;;;6092143;23;20022;-68
2023/09/28 12:38:10;;;;;;;11.43;2.78;;;19.40;99.90;;;;;;6092006;23;20018;-68